sensor_id;sensor_type;location;lat;lon;timestamp;temperature;humidity
1700;DHT22;847;48.058;7.810;2023-03-01T00:01:00;-0.40;93.80
1700;DHT22;847;48.058;7.810;2023-03-01T00:03:27;-0.40;93.80
1700;DHT22;847;48.058;7.810;2023-03-01T00:05:53;-0.40;93.30
1700;DHT22;847;48.058;7.810;2023-03-01T00:08:20;-0.40;93.30
1700;DHT22;847;48.058;7.810;2023-03-01T00:10:47;-0.40;93.60
1700;DHT22;847;48.058;7.810;2023-03-01T00:13:14;-0.40;93.00
1700;DHT22;847;48.058;7.810;2023-03-01T00:15:41;-0.30;93.30
1700;DHT22;847;48.058;7.810;2023-03-01T00:18:10;-0.40;93.10
1700;DHT22;847;48.058;7.810;2023-03-01T00:20:37;-0.40;93.40
1700;DHT22;847;48.058;7.810;2023-03-01T00:23:04;-0.30;93.40
1700;DHT22;847;48.058;7.810;2023-03-01T00:25:30;-0.30;93.30
1700;DHT22;847;48.058;7.810;2023-03-01T00:27:57;-0.30;92.90
1700;DHT22;847;48.058;7.810;2023-03-01T00:30:24;-0.30;92.60
1700;DHT22;847;48.058;7.810;2023-03-01T00:32:51;-0.50;93.10
1700;DHT22;847;48.058;7.810;2023-03-01T00:35:19;-0.50;94.00
1700;DHT22;847;48.058;7.810;2023-03-01T00:37:48;-0.50;93.90
1700;DHT22;847;48.058;7.810;2023-03-01T00:40:18;-0.40;93.70
1700;DHT22;847;48.058;7.810;2023-03-01T00:42:45;-0.50;93.60
1700;DHT22;847;48.058;7.810;2023-03-01T00:45:12;-0.60;93.90
1700;DHT22;847;48.058;7.810;2023-03-01T00:47:39;-0.50;94.30
1700;DHT22;847;48.058;7.810;2023-03-01T00:50:06;-0.60;94.10
1700;DHT22;847;48.058;7.810;2023-03-01T00:52:35;-0.80;94.00
1700;DHT22;847;48.058;7.810;2023-03-01T00:55:02;-0.80;94.60
1700;DHT22;847;48.058;7.810;2023-03-01T00:57:30;-0.70;94.40
1700;DHT22;847;48.058;7.810;2023-03-01T00:59:57;-0.70;94.00
1700;DHT22;847;48.058;7.810;2023-03-01T01:02:23;-0.70;94.10
1700;DHT22;847;48.058;7.810;2023-03-01T01:04:50;-0.70;94.60
1700;DHT22;847;48.058;7.810;2023-03-01T01:07:17;-0.80;94.60
1700;DHT22;847;48.058;7.810;2023-03-01T01:09:47;-0.80;95.20
1700;DHT22;847;48.058;7.810;2023-03-01T01:12:13;-0.80;94.90
1700;DHT22;847;48.058;7.810;2023-03-01T01:14:40;-0.80;94.20
1700;DHT22;847;48.058;7.810;2023-03-01T01:17:07;-0.90;93.60
1700;DHT22;847;48.058;7.810;2023-03-01T01:19:34;-0.90;94.00
1700;DHT22;847;48.058;7.810;2023-03-01T01:22:01;-0.80;94.10
1700;DHT22;847;48.058;7.810;2023-03-01T01:24:28;-0.80;95.30
1700;DHT22;847;48.058;7.810;2023-03-01T01:26:57;-0.90;95.60
1700;DHT22;847;48.058;7.810;2023-03-01T01:29:24;-0.80;95.90
1700;DHT22;847;48.058;7.810;2023-03-01T01:31:51;-0.90;95.70
1700;DHT22;847;48.058;7.810;2023-03-01T01:34:20;-0.90;95.90
1700;DHT22;847;48.058;7.810;2023-03-01T01:36:48;-1.00;96.90
1700;DHT22;847;48.058;7.810;2023-03-01T01:39:15;-1.10;97.40
1700;DHT22;847;48.058;7.810;2023-03-01T01:41:42;-1.10;97.70
1700;DHT22;847;48.058;7.810;2023-03-01T01:44:14;-1.00;97.90
1700;DHT22;847;48.058;7.810;2023-03-01T01:46:43;-0.90;96.70
1700;DHT22;847;48.058;7.810;2023-03-01T01:49:23;-0.80;95.90
1700;DHT22;847;48.058;7.810;2023-03-01T01:51:55;-0.70;95.90
1700;DHT22;847;48.058;7.810;2023-03-01T01:54:26;-0.70;95.60
1700;DHT22;847;48.058;7.810;2023-03-01T01:56:56;-0.70;95.40
1700;DHT22;847;48.058;7.810;2023-03-01T01:59:27;-0.70;94.90
1700;DHT22;847;48.058;7.810;2023-03-01T02:01:56;-0.70;94.80
1700;DHT22;847;48.058;7.810;2023-03-01T02:04:24;-0.70;95.10
1700;DHT22;847;48.058;7.810;2023-03-01T02:06:53;-0.70;95.10
1700;DHT22;847;48.058;7.810;2023-03-01T02:09:23;-0.80;94.70
1700;DHT22;847;48.058;7.810;2023-03-01T02:11:51;-0.90;95.30
1700;DHT22;847;48.058;7.810;2023-03-01T02:14:18;-0.90;95.30
1700;DHT22;847;48.058;7.810;2023-03-01T02:16:47;-0.90;95.50
1700;DHT22;847;48.058;7.810;2023-03-01T02:19:28;-0.90;95.60
1700;DHT22;847;48.058;7.810;2023-03-01T02:22:03;-0.90;95.80
1700;DHT22;847;48.058;7.810;2023-03-01T02:24:40;-0.90;96.40
1700;DHT22;847;48.058;7.810;2023-03-01T02:27:12;-1.00;96.60
1700;DHT22;847;48.058;7.810;2023-03-01T02:29:40;-0.90;96.90
1700;DHT22;847;48.058;7.810;2023-03-01T02:32:10;-0.90;96.40
1700;DHT22;847;48.058;7.810;2023-03-01T02:34:38;-0.90;96.20
1700;DHT22;847;48.058;7.810;2023-03-01T02:37:08;-0.90;96.00
1700;DHT22;847;48.058;7.810;2023-03-01T02:39:40;-1.00;95.70
1700;DHT22;847;48.058;7.810;2023-03-01T02:42:18;-1.00;95.70
1700;DHT22;847;48.058;7.810;2023-03-01T02:44:48;-1.00;95.70
1700;DHT22;847;48.058;7.810;2023-03-01T02:47:15;-0.90;95.50
1700;DHT22;847;48.058;7.810;2023-03-01T02:49:42;-0.90;95.60
1700;DHT22;847;48.058;7.810;2023-03-01T02:52:21;-0.90;95.60
1700;DHT22;847;48.058;7.810;2023-03-01T02:54:55;-0.90;95.40
1700;DHT22;847;48.058;7.810;2023-03-01T02:57:24;-0.90;95.10
1700;DHT22;847;48.058;7.810;2023-03-01T02:59:54;-1.10;95.10
1700;DHT22;847;48.058;7.810;2023-03-01T03:02:25;-1.20;96.40
1700;DHT22;847;48.058;7.810;2023-03-01T03:05:07;-1.10;96.40
1700;DHT22;847;48.058;7.810;2023-03-01T03:07:36;-1.00;96.60
1700;DHT22;847;48.058;7.810;2023-03-01T03:10:05;-1.10;96.20
1700;DHT22;847;48.058;7.810;2023-03-01T03:12:33;-1.20;96.70
1700;DHT22;847;48.058;7.810;2023-03-01T03:15:01;-1.20;97.30
1700;DHT22;847;48.058;7.810;2023-03-01T03:17:34;-1.20;97.80
1700;DHT22;847;48.058;7.810;2023-03-01T03:20:01;-1.10;97.30
1700;DHT22;847;48.058;7.810;2023-03-01T03:22:29;-1.10;97.00
1700;DHT22;847;48.058;7.810;2023-03-01T03:24:56;-1.10;96.80
1700;DHT22;847;48.058;7.810;2023-03-01T03:27:23;-1.20;97.20
1700;DHT22;847;48.058;7.810;2023-03-01T03:29:50;-1.20;97.40
1700;DHT22;847;48.058;7.810;2023-03-01T03:32:18;-1.20;97.10
1700;DHT22;847;48.058;7.810;2023-03-01T03:34:45;-1.40;97.90
1700;DHT22;847;48.058;7.810;2023-03-01T03:37:12;-1.50;98.50
1700;DHT22;847;48.058;7.810;2023-03-01T03:39:53;-1.60;99.00
1700;DHT22;847;48.058;7.810;2023-03-01T03:42:20;-1.70;99.00
1700;DHT22;847;48.058;7.810;2023-03-01T03:44:48;-1.70;99.00
1700;DHT22;847;48.058;7.810;2023-03-01T03:47:15;-1.70;99.00
1700;DHT22;847;48.058;7.810;2023-03-01T03:49:43;-1.70;99.00
1700;DHT22;847;48.058;7.810;2023-03-01T03:52:10;-1.70;99.00
1700;DHT22;847;48.058;7.810;2023-03-01T03:54:39;-1.60;99.00
1700;DHT22;847;48.058;7.810;2023-03-01T03:57:06;-1.60;99.00
1700;DHT22;847;48.058;7.810;2023-03-01T03:59:33;-1.60;99.00
1700;DHT22;847;48.058;7.810;2023-03-01T04:02:00;-1.60;99.00
1700;DHT22;847;48.058;7.810;2023-03-01T04:04:26;-1.60;99.00
1700;DHT22;847;48.058;7.810;2023-03-01T04:06:55;-1.50;99.00
1700;DHT22;847;48.058;7.810;2023-03-01T04:09:22;-1.40;99.00
1700;DHT22;847;48.058;7.810;2023-03-01T04:11:49;-1.30;98.80
1700;DHT22;847;48.058;7.810;2023-03-01T04:14:16;-1.20;98.40
1700;DHT22;847;48.058;7.810;2023-03-01T04:16:43;-1.30;98.50
1700;DHT22;847;48.058;7.810;2023-03-01T04:19:09;-1.30;98.00
1700;DHT22;847;48.058;7.810;2023-03-01T04:21:36;-1.30;97.80
1700;DHT22;847;48.058;7.810;2023-03-01T04:24:05;-1.30;97.60
1700;DHT22;847;48.058;7.810;2023-03-01T04:26:32;-1.30;98.30
1700;DHT22;847;48.058;7.810;2023-03-01T04:28:59;-1.30;98.60
1700;DHT22;847;48.058;7.810;2023-03-01T04:31:26;-1.30;98.70
1700;DHT22;847;48.058;7.810;2023-03-01T04:33:55;-1.40;99.00
1700;DHT22;847;48.058;7.810;2023-03-01T04:36:23;-1.50;99.00
1700;DHT22;847;48.058;7.810;2023-03-01T04:38:51;-1.50;99.00
1700;DHT22;847;48.058;7.810;2023-03-01T04:41:22;-1.40;99.00
1700;DHT22;847;48.058;7.810;2023-03-01T04:43:49;-1.50;99.00
1700;DHT22;847;48.058;7.810;2023-03-01T04:46:18;-1.60;99.00
1700;DHT22;847;48.058;7.810;2023-03-01T04:48:46;-1.50;99.00
1700;DHT22;847;48.058;7.810;2023-03-01T04:51:13;-1.50;99.00
1700;DHT22;847;48.058;7.810;2023-03-01T04:53:41;-1.50;99.00
1700;DHT22;847;48.058;7.810;2023-03-01T04:56:08;-1.50;99.00
1700;DHT22;847;48.058;7.810;2023-03-01T04:58:37;-1.50;99.00
1700;DHT22;847;48.058;7.810;2023-03-01T05:01:09;-1.40;99.00
1700;DHT22;847;48.058;7.810;2023-03-01T05:03:41;-1.30;99.00
1700;DHT22;847;48.058;7.810;2023-03-01T05:06:07;-1.30;99.00
1700;DHT22;847;48.058;7.810;2023-03-01T05:08:34;-1.40;99.00
1700;DHT22;847;48.058;7.810;2023-03-01T05:11:03;-1.30;99.00
1700;DHT22;847;48.058;7.810;2023-03-01T05:13:30;-1.30;99.00
1700;DHT22;847;48.058;7.810;2023-03-01T05:16:01;-1.30;99.00
1700;DHT22;847;48.058;7.810;2023-03-01T05:18:31;-1.40;99.00
1700;DHT22;847;48.058;7.810;2023-03-01T05:21:03;-1.40;99.00
1700;DHT22;847;48.058;7.810;2023-03-01T05:23:32;-1.30;99.00
1700;DHT22;847;48.058;7.810;2023-03-01T05:26:00;-1.30;99.00
1700;DHT22;847;48.058;7.810;2023-03-01T05:28:28;-1.30;99.00
1700;DHT22;847;48.058;7.810;2023-03-01T05:30:55;-1.30;99.00
1700;DHT22;847;48.058;7.810;2023-03-01T05:33:24;-1.30;99.00
1700;DHT22;847;48.058;7.810;2023-03-01T05:35:52;-1.20;99.00
1700;DHT22;847;48.058;7.810;2023-03-01T05:38:20;-1.20;99.00
1700;DHT22;847;48.058;7.810;2023-03-01T05:40:48;-1.20;99.00
1700;DHT22;847;48.058;7.810;2023-03-01T05:43:16;-1.10;99.00
1700;DHT22;847;48.058;7.810;2023-03-01T05:45:44;-1.10;99.00
1700;DHT22;847;48.058;7.810;2023-03-01T05:48:11;-1.20;99.00
1700;DHT22;847;48.058;7.810;2023-03-01T05:50:41;-1.20;99.00
1700;DHT22;847;48.058;7.810;2023-03-01T05:53:10;-1.10;99.00
1700;DHT22;847;48.058;7.810;2023-03-01T05:55:38;-1.10;99.00
1700;DHT22;847;48.058;7.810;2023-03-01T05:58:07;-1.10;99.00
1700;DHT22;847;48.058;7.810;2023-03-01T06:00:35;-1.20;99.00
1700;DHT22;847;48.058;7.810;2023-03-01T06:03:03;-1.10;99.00
1700;DHT22;847;48.058;7.810;2023-03-01T06:05:30;-1.00;99.00
1700;DHT22;847;48.058;7.810;2023-03-01T06:08:00;-1.00;99.00
1700;DHT22;847;48.058;7.810;2023-03-01T06:10:27;-1.00;99.00
1700;DHT22;847;48.058;7.810;2023-03-01T06:12:55;-1.00;99.00
1700;DHT22;847;48.058;7.810;2023-03-01T06:15:22;-1.00;99.00
1700;DHT22;847;48.058;7.810;2023-03-01T06:17:50;-1.00;99.00
1700;DHT22;847;48.058;7.810;2023-03-01T06:20:19;-0.90;99.00
1700;DHT22;847;48.058;7.810;2023-03-01T06:22:50;-0.90;99.00
1700;DHT22;847;48.058;7.810;2023-03-01T06:25:20;-0.90;99.00
1700;DHT22;847;48.058;7.810;2023-03-01T06:27:47;-0.90;99.00
1700;DHT22;847;48.058;7.810;2023-03-01T06:30:17;-1.00;99.00
1700;DHT22;847;48.058;7.810;2023-03-01T06:32:44;-0.90;99.00
1700;DHT22;847;48.058;7.810;2023-03-01T06:35:16;-0.90;99.00
1700;DHT22;847;48.058;7.810;2023-03-01T06:37:45;-0.90;99.00
1700;DHT22;847;48.058;7.810;2023-03-01T06:40:13;-0.90;99.00
1700;DHT22;847;48.058;7.810;2023-03-01T06:42:42;-0.90;99.00
1700;DHT22;847;48.058;7.810;2023-03-01T06:45:10;-0.90;99.00
1700;DHT22;847;48.058;7.810;2023-03-01T06:47:37;-0.90;99.00
1700;DHT22;847;48.058;7.810;2023-03-01T06:50:05;-0.90;99.00
1700;DHT22;847;48.058;7.810;2023-03-01T06:52:32;-0.80;99.00
1700;DHT22;847;48.058;7.810;2023-03-01T06:55:00;-0.70;99.00
1700;DHT22;847;48.058;7.810;2023-03-01T06:57:27;-0.70;99.00
1700;DHT22;847;48.058;7.810;2023-03-01T06:59:55;-0.70;99.00
1700;DHT22;847;48.058;7.810;2023-03-01T07:02:22;-0.60;99.00
1700;DHT22;847;48.058;7.810;2023-03-01T07:04:50;-0.60;99.00
1700;DHT22;847;48.058;7.810;2023-03-01T07:07:17;-0.60;99.00
1700;DHT22;847;48.058;7.810;2023-03-01T07:09:44;-0.60;99.00
1700;DHT22;847;48.058;7.810;2023-03-01T07:12:11;-0.60;99.00
1700;DHT22;847;48.058;7.810;2023-03-01T07:14:38;-0.70;99.00
1700;DHT22;847;48.058;7.810;2023-03-01T07:17:06;-0.70;99.00
1700;DHT22;847;48.058;7.810;2023-03-01T07:19:33;-0.70;99.00
1700;DHT22;847;48.058;7.810;2023-03-01T07:22:00;-0.60;99.00
1700;DHT22;847;48.058;7.810;2023-03-01T07:24:27;-0.60;99.00
1700;DHT22;847;48.058;7.810;2023-03-01T07:26:54;-0.60;99.00
1700;DHT22;847;48.058;7.810;2023-03-01T07:29:21;-0.60;99.00
1700;DHT22;847;48.058;7.810;2023-03-01T07:31:48;-0.60;99.00
1700;DHT22;847;48.058;7.810;2023-03-01T07:34:16;-0.60;99.00
1700;DHT22;847;48.058;7.810;2023-03-01T07:36:43;-0.60;99.00
1700;DHT22;847;48.058;7.810;2023-03-01T07:39:11;-0.60;99.00
1700;DHT22;847;48.058;7.810;2023-03-01T07:41:38;-0.60;99.00
1700;DHT22;847;48.058;7.810;2023-03-01T07:44:05;-0.60;99.00
1700;DHT22;847;48.058;7.810;2023-03-01T07:46:32;-0.50;99.00
1700;DHT22;847;48.058;7.810;2023-03-01T07:48:59;-0.40;99.00
1700;DHT22;847;48.058;7.810;2023-03-01T07:51:28;-0.40;99.00
1700;DHT22;847;48.058;7.810;2023-03-01T07:53:54;-0.50;99.00
1700;DHT22;847;48.058;7.810;2023-03-01T07:56:21;-0.40;99.00
1700;DHT22;847;48.058;7.810;2023-03-01T07:58:48;-0.40;99.00
1700;DHT22;847;48.058;7.810;2023-03-01T08:01:17;-0.40;99.00
1700;DHT22;847;48.058;7.810;2023-03-01T08:03:45;-0.40;99.00
1700;DHT22;847;48.058;7.810;2023-03-01T08:06:13;-0.30;99.00
1700;DHT22;847;48.058;7.810;2023-03-01T08:08:42;-0.30;99.00
1700;DHT22;847;48.058;7.810;2023-03-01T08:11:11;-0.40;99.00
1700;DHT22;847;48.058;7.810;2023-03-01T08:13:38;-0.40;99.00
1700;DHT22;847;48.058;7.810;2023-03-01T08:16:07;-0.30;99.00
1700;DHT22;847;48.058;7.810;2023-03-01T08:18:34;-0.20;99.00
1700;DHT22;847;48.058;7.810;2023-03-01T08:21:02;0.00;99.00
1700;DHT22;847;48.058;7.810;2023-03-01T08:23:29;0.00;99.00
1700;DHT22;847;48.058;7.810;2023-03-01T08:26:08;0.10;99.00
1700;DHT22;847;48.058;7.810;2023-03-01T08:28:35;0.10;99.00
1700;DHT22;847;48.058;7.810;2023-03-01T08:31:02;0.20;99.00
1700;DHT22;847;48.058;7.810;2023-03-01T08:33:29;0.20;99.00
1700;DHT22;847;48.058;7.810;2023-03-01T08:36:03;0.30;99.00
1700;DHT22;847;48.058;7.810;2023-03-01T08:38:32;0.30;99.00
1700;DHT22;847;48.058;7.810;2023-03-01T08:41:00;0.20;99.00
1700;DHT22;847;48.058;7.810;2023-03-01T08:43:28;0.20;99.00
1700;DHT22;847;48.058;7.810;2023-03-01T08:45:55;0.20;99.00
1700;DHT22;847;48.058;7.810;2023-03-01T08:48:22;0.30;99.00
1700;DHT22;847;48.058;7.810;2023-03-01T08:50:49;0.40;99.00
1700;DHT22;847;48.058;7.810;2023-03-01T08:53:16;0.50;99.00
1700;DHT22;847;48.058;7.810;2023-03-01T08:55:43;0.60;99.00
1700;DHT22;847;48.058;7.810;2023-03-01T08:58:09;0.50;99.00
1700;DHT22;847;48.058;7.810;2023-03-01T09:00:38;0.50;99.00
1700;DHT22;847;48.058;7.810;2023-03-01T09:03:08;0.40;98.90
1700;DHT22;847;48.058;7.810;2023-03-01T09:05:34;0.40;99.00
1700;DHT22;847;48.058;7.810;2023-03-01T09:08:02;0.40;98.80
1700;DHT22;847;48.058;7.810;2023-03-01T09:10:29;0.50;99.00
1700;DHT22;847;48.058;7.810;2023-03-01T09:12:56;0.50;98.90
1700;DHT22;847;48.058;7.810;2023-03-01T09:15:22;0.60;98.90
1700;DHT22;847;48.058;7.810;2023-03-01T09:17:51;0.70;99.00
1700;DHT22;847;48.058;7.810;2023-03-01T09:20:18;0.80;99.00
1700;DHT22;847;48.058;7.810;2023-03-01T09:22:44;0.80;98.90
1700;DHT22;847;48.058;7.810;2023-03-01T09:25:11;0.90;99.00
1700;DHT22;847;48.058;7.810;2023-03-01T09:27:38;1.00;98.70
1700;DHT22;847;48.058;7.810;2023-03-01T09:30:06;1.10;98.90
1700;DHT22;847;48.058;7.810;2023-03-01T09:32:33;1.10;98.20
1700;DHT22;847;48.058;7.810;2023-03-01T09:35:01;1.10;98.00
1700;DHT22;847;48.058;7.810;2023-03-01T09:37:31;1.10;98.20
1700;DHT22;847;48.058;7.810;2023-03-01T09:39:58;1.20;98.10
1700;DHT22;847;48.058;7.810;2023-03-01T09:42:25;1.20;97.90
1700;DHT22;847;48.058;7.810;2023-03-01T09:44:56;1.30;97.60
1700;DHT22;847;48.058;7.810;2023-03-01T09:47:27;1.50;97.80
1700;DHT22;847;48.058;7.810;2023-03-01T09:50:04;1.60;97.40
1700;DHT22;847;48.058;7.810;2023-03-01T09:52:36;1.80;97.50
1700;DHT22;847;48.058;7.810;2023-03-01T09:55:10;1.90;95.90
1700;DHT22;847;48.058;7.810;2023-03-01T09:57:43;2.00;95.60
1700;DHT22;847;48.058;7.810;2023-03-01T10:00:18;2.10;96.40
1700;DHT22;847;48.058;7.810;2023-03-01T10:02:49;2.10;95.10
1700;DHT22;847;48.058;7.810;2023-03-01T10:05:52;2.10;95.50
1700;DHT22;847;48.058;7.810;2023-03-01T10:08:34;2.10;94.70
1700;DHT22;847;48.058;7.810;2023-03-01T10:11:05;2.20;95.00
1700;DHT22;847;48.058;7.810;2023-03-01T10:13:45;2.30;94.40
1700;DHT22;847;48.058;7.810;2023-03-01T10:16:16;2.40;94.10
1700;DHT22;847;48.058;7.810;2023-03-01T10:18:50;2.40;94.50
1700;DHT22;847;48.058;7.810;2023-03-01T10:21:20;2.60;93.80
1700;DHT22;847;48.058;7.810;2023-03-01T10:23:50;2.60;93.70
1700;DHT22;847;48.058;7.810;2023-03-01T10:26:33;2.60;93.20
1700;DHT22;847;48.058;7.810;2023-03-01T10:29:04;2.60;93.60
1700;DHT22;847;48.058;7.810;2023-03-01T10:31:38;2.60;93.40
1700;DHT22;847;48.058;7.810;2023-03-01T10:34:11;2.60;93.20
1700;DHT22;847;48.058;7.810;2023-03-01T10:36:41;2.70;93.50
1700;DHT22;847;48.058;7.810;2023-03-01T10:39:14;2.70;93.50
1700;DHT22;847;48.058;7.810;2023-03-01T10:41:56;2.80;92.80
1700;DHT22;847;48.058;7.810;2023-03-01T10:44:41;2.80;93.20
1700;DHT22;847;48.058;7.810;2023-03-01T10:47:20;2.80;92.90
1700;DHT22;847;48.058;7.810;2023-03-01T10:49:53;2.90;92.90
1700;DHT22;847;48.058;7.810;2023-03-01T10:52:23;2.80;92.50
1700;DHT22;847;48.058;7.810;2023-03-01T10:54:55;2.80;92.50
1700;DHT22;847;48.058;7.810;2023-03-01T10:57:32;2.80;92.80
1700;DHT22;847;48.058;7.810;2023-03-01T11:00:16;2.80;92.40
1700;DHT22;847;48.058;7.810;2023-03-01T11:02:47;2.90;93.20
1700;DHT22;847;48.058;7.810;2023-03-01T11:05:21;3.00;93.10
1700;DHT22;847;48.058;7.810;2023-03-01T11:07:52;3.10;92.80
1700;DHT22;847;48.058;7.810;2023-03-01T11:10:23;3.10;92.50
1700;DHT22;847;48.058;7.810;2023-03-01T11:12:51;3.10;91.90
1700;DHT22;847;48.058;7.810;2023-03-01T11:15:24;3.20;92.20
1700;DHT22;847;48.058;7.810;2023-03-01T11:17:51;3.30;92.10
1700;DHT22;847;48.058;7.810;2023-03-01T11:20:25;3.40;91.50
1700;DHT22;847;48.058;7.810;2023-03-01T11:22:56;3.60;91.20
1700;DHT22;847;48.058;7.810;2023-03-01T11:25:26;3.70;90.70
1700;DHT22;847;48.058;7.810;2023-03-01T11:27:55;3.90;91.40
1700;DHT22;847;48.058;7.810;2023-03-01T11:30:26;4.00;90.30
1700;DHT22;847;48.058;7.810;2023-03-01T11:33:05;4.00;89.50
1700;DHT22;847;48.058;7.810;2023-03-01T11:35:36;4.00;89.70
1700;DHT22;847;48.058;7.810;2023-03-01T11:38:18;4.10;89.00
1700;DHT22;847;48.058;7.810;2023-03-01T11:40:52;4.10;88.40
1700;DHT22;847;48.058;7.810;2023-03-01T11:43:26;4.20;88.60
1700;DHT22;847;48.058;7.810;2023-03-01T11:46:17;4.20;89.50
1700;DHT22;847;48.058;7.810;2023-03-01T11:48:55;4.30;89.70
1700;DHT22;847;48.058;7.810;2023-03-01T11:51:33;4.40;90.00
1700;DHT22;847;48.058;7.810;2023-03-01T11:54:17;4.50;89.30
1700;DHT22;847;48.058;7.810;2023-03-01T11:56:49;4.60;88.20
1700;DHT22;847;48.058;7.810;2023-03-01T12:02:32;4.80;86.00
1700;DHT22;847;48.058;7.810;2023-03-01T12:05:20;4.90;85.70
1700;DHT22;847;48.058;7.810;2023-03-01T12:07:53;5.00;85.40
1700;DHT22;847;48.058;7.810;2023-03-01T12:10:27;5.00;84.50
1700;DHT22;847;48.058;7.810;2023-03-01T12:13:23;5.00;83.60
1700;DHT22;847;48.058;7.810;2023-03-01T12:16:13;5.10;84.30
1700;DHT22;847;48.058;7.810;2023-03-01T12:18:58;5.20;84.00
1700;DHT22;847;48.058;7.810;2023-03-01T12:21:40;5.30;83.30
1700;DHT22;847;48.058;7.810;2023-03-01T12:24:37;5.40;83.10
1700;DHT22;847;48.058;7.810;2023-03-01T12:27:27;5.50;83.00
1700;DHT22;847;48.058;7.810;2023-03-01T12:30:05;5.50;81.90
1700;DHT22;847;48.058;7.810;2023-03-01T12:32:51;5.50;81.80
1700;DHT22;847;48.058;7.810;2023-03-01T12:35:36;5.60;82.80
1700;DHT22;847;48.058;7.810;2023-03-01T12:38:36;5.60;82.00
1700;DHT22;847;48.058;7.810;2023-03-01T12:41:29;5.70;82.70
1700;DHT22;847;48.058;7.810;2023-03-01T12:44:22;5.60;81.30
1700;DHT22;847;48.058;7.810;2023-03-01T12:47:02;5.50;81.90
1700;DHT22;847;48.058;7.810;2023-03-01T12:49:37;5.80;81.80
1700;DHT22;847;48.058;7.810;2023-03-01T12:52:16;6.10;81.80
1700;DHT22;847;48.058;7.810;2023-03-01T13:08:48;7.10;78.20
1700;DHT22;847;48.058;7.810;2023-03-01T13:21:41;7.40;75.90
1700;DHT22;847;48.058;7.810;2023-03-01T13:27:22;7.10;76.20
1700;DHT22;847;48.058;7.810;2023-03-01T13:29:54;7.30;76.30
1700;DHT22;847;48.058;7.810;2023-03-01T13:32:23;7.10;75.90
1700;DHT22;847;48.058;7.810;2023-03-01T13:34:52;6.70;76.80
1700;DHT22;847;48.058;7.810;2023-03-01T13:37:22;6.80;76.90
1700;DHT22;847;48.058;7.810;2023-03-01T13:39:51;6.90;76.10
1700;DHT22;847;48.058;7.810;2023-03-01T13:42:33;7.00;76.30
1700;DHT22;847;48.058;7.810;2023-03-01T13:45:03;7.10;75.60
1700;DHT22;847;48.058;7.810;2023-03-01T13:47:30;7.10;74.90
1700;DHT22;847;48.058;7.810;2023-03-01T13:50:00;7.20;75.10
1700;DHT22;847;48.058;7.810;2023-03-01T13:52:39;7.30;75.30
1700;DHT22;847;48.058;7.810;2023-03-01T13:55:19;7.20;75.20
1700;DHT22;847;48.058;7.810;2023-03-01T13:57:50;7.30;74.70
1700;DHT22;847;48.058;7.810;2023-03-01T14:00:31;7.20;74.60
1700;DHT22;847;48.058;7.810;2023-03-01T14:03:05;7.20;75.10
1700;DHT22;847;48.058;7.810;2023-03-01T14:05:35;7.40;75.00
1700;DHT22;847;48.058;7.810;2023-03-01T14:08:02;7.60;74.60
1700;DHT22;847;48.058;7.810;2023-03-01T14:10:36;7.60;73.70
1700;DHT22;847;48.058;7.810;2023-03-01T14:13:21;7.40;73.50
1700;DHT22;847;48.058;7.810;2023-03-01T14:16:07;7.60;74.80
1700;DHT22;847;48.058;7.810;2023-03-01T14:18:45;8.20;72.90
1700;DHT22;847;48.058;7.810;2023-03-01T14:21:14;8.20;72.80
1700;DHT22;847;48.058;7.810;2023-03-01T14:23:42;8.20;73.00
1700;DHT22;847;48.058;7.810;2023-03-01T14:26:09;8.00;74.10
1700;DHT22;847;48.058;7.810;2023-03-01T14:28:39;7.90;75.20
1700;DHT22;847;48.058;7.810;2023-03-01T14:31:37;7.50;77.10
1700;DHT22;847;48.058;7.810;2023-03-01T14:34:05;7.40;76.60
1700;DHT22;847;48.058;7.810;2023-03-01T14:36:33;7.40;77.00
1700;DHT22;847;48.058;7.810;2023-03-01T14:39:00;7.20;77.60
1700;DHT22;847;48.058;7.810;2023-03-01T14:41:33;7.10;77.80
1700;DHT22;847;48.058;7.810;2023-03-01T14:44:05;7.10;78.30
1700;DHT22;847;48.058;7.810;2023-03-01T14:46:34;7.20;78.90
1700;DHT22;847;48.058;7.810;2023-03-01T14:49:04;7.40;78.20
1700;DHT22;847;48.058;7.810;2023-03-01T14:51:36;7.50;77.90
1700;DHT22;847;48.058;7.810;2023-03-01T14:54:04;7.30;78.30
1700;DHT22;847;48.058;7.810;2023-03-01T14:56:44;7.30;77.30
1700;DHT22;847;48.058;7.810;2023-03-01T14:59:12;7.20;78.00
1700;DHT22;847;48.058;7.810;2023-03-01T15:01:40;7.20;78.40
1700;DHT22;847;48.058;7.810;2023-03-01T15:04:11;7.20;77.10
1700;DHT22;847;48.058;7.810;2023-03-01T15:06:39;7.30;78.10
1700;DHT22;847;48.058;7.810;2023-03-01T15:09:06;7.30;78.10
1700;DHT22;847;48.058;7.810;2023-03-01T15:11:34;7.30;78.30
1700;DHT22;847;48.058;7.810;2023-03-01T15:14:38;7.40;77.50
1700;DHT22;847;48.058;7.810;2023-03-01T15:17:19;7.40;78.70
1700;DHT22;847;48.058;7.810;2023-03-01T15:19:47;7.30;78.50
1700;DHT22;847;48.058;7.810;2023-03-01T15:22:15;7.30;79.00
1700;DHT22;847;48.058;7.810;2023-03-01T15:24:46;7.30;78.60
1700;DHT22;847;48.058;7.810;2023-03-01T15:27:17;7.30;78.30
1700;DHT22;847;48.058;7.810;2023-03-01T15:29:51;7.40;78.40
1700;DHT22;847;48.058;7.810;2023-03-01T15:32:30;7.20;78.60
1700;DHT22;847;48.058;7.810;2023-03-01T15:34:57;7.10;80.00
1700;DHT22;847;48.058;7.810;2023-03-01T15:37:39;7.10;80.30
1700;DHT22;847;48.058;7.810;2023-03-01T15:40:19;7.10;80.00
1700;DHT22;847;48.058;7.810;2023-03-01T15:42:49;7.20;79.20
1700;DHT22;847;48.058;7.810;2023-03-01T15:45:25;7.10;78.10
1700;DHT22;847;48.058;7.810;2023-03-01T15:47:54;7.10;78.30
1700;DHT22;847;48.058;7.810;2023-03-01T15:50:25;7.10;78.80
1700;DHT22;847;48.058;7.810;2023-03-01T15:52:52;7.10;79.90
1700;DHT22;847;48.058;7.810;2023-03-01T15:55:21;7.10;80.50
1700;DHT22;847;48.058;7.810;2023-03-01T15:57:48;7.00;79.90
1700;DHT22;847;48.058;7.810;2023-03-01T16:00:19;7.00;79.60
1700;DHT22;847;48.058;7.810;2023-03-01T16:02:47;7.00;78.90
1700;DHT22;847;48.058;7.810;2023-03-01T16:05:20;6.90;78.60
1700;DHT22;847;48.058;7.810;2023-03-01T16:07:48;6.90;78.60
1700;DHT22;847;48.058;7.810;2023-03-01T16:10:15;6.80;78.60
1700;DHT22;847;48.058;7.810;2023-03-01T16:12:42;6.80;79.10
1700;DHT22;847;48.058;7.810;2023-03-01T16:15:14;6.80;79.30
1700;DHT22;847;48.058;7.810;2023-03-01T16:17:42;6.70;78.80
1700;DHT22;847;48.058;7.810;2023-03-01T16:20:11;6.70;78.60
1700;DHT22;847;48.058;7.810;2023-03-01T16:22:41;6.70;78.60
1700;DHT22;847;48.058;7.810;2023-03-01T16:25:09;6.70;78.60
1700;DHT22;847;48.058;7.810;2023-03-01T16:27:36;6.60;79.10
1700;DHT22;847;48.058;7.810;2023-03-01T16:30:03;6.60;78.50
1700;DHT22;847;48.058;7.810;2023-03-01T16:32:30;6.50;78.50
1700;DHT22;847;48.058;7.810;2023-03-01T16:34:57;6.50;78.70
1700;DHT22;847;48.058;7.810;2023-03-01T16:37:25;6.50;79.70
1700;DHT22;847;48.058;7.810;2023-03-01T16:39:52;6.40;79.20
1700;DHT22;847;48.058;7.810;2023-03-01T16:42:18;6.40;80.50
1700;DHT22;847;48.058;7.810;2023-03-01T16:44:45;6.30;80.70
1700;DHT22;847;48.058;7.810;2023-03-01T16:47:12;6.20;80.80
1700;DHT22;847;48.058;7.810;2023-03-01T16:49:39;6.20;80.80
1700;DHT22;847;48.058;7.810;2023-03-01T16:52:05;6.20;80.50
1700;DHT22;847;48.058;7.810;2023-03-01T16:54:36;6.10;80.80
1700;DHT22;847;48.058;7.810;2023-03-01T16:57:03;6.00;81.10
1700;DHT22;847;48.058;7.810;2023-03-01T16:59:30;6.00;81.30
1700;DHT22;847;48.058;7.810;2023-03-01T17:01:56;6.00;81.60
1700;DHT22;847;48.058;7.810;2023-03-01T17:04:23;6.00;81.30
1700;DHT22;847;48.058;7.810;2023-03-01T17:06:50;6.00;81.50
1700;DHT22;847;48.058;7.810;2023-03-01T17:09:16;6.00;80.80
1700;DHT22;847;48.058;7.810;2023-03-01T17:11:48;6.00;80.70
1700;DHT22;847;48.058;7.810;2023-03-01T17:14:15;6.00;81.00
1700;DHT22;847;48.058;7.810;2023-03-01T17:16:42;6.00;81.20
1700;DHT22;847;48.058;7.810;2023-03-01T17:19:10;6.00;80.60